createdAt,value
2022-12-03T00:00:16.508Z,36.40
2022-12-03T00:05:00.066Z,36.53
2022-12-03T00:09:43.527Z,29.87
2022-12-03T00:14:28.474Z,31.83
2022-12-03T00:19:12.024Z,30.20
2022-12-03T00:23:56.845Z,36.10
2022-12-03T00:28:41.147Z,31.07
2022-12-03T00:33:26.134Z,29.27
2022-12-03T00:38:09.759Z,35.77
2022-12-03T00:42:53.253Z,29.33
2022-12-03T00:47:36.681Z,31.87
2022-12-03T00:52:21.636Z,35.57
2022-12-03T00:57:05.309Z,29.60
2022-12-03T01:01:48.938Z,32.10
2022-12-03T01:06:32.725Z,28.60
2022-12-03T01:11:35.158Z,31.97
2022-12-03T01:16:18.734Z,32.87
2022-12-03T01:21:02.344Z,28.50
2022-12-03T01:25:45.848Z,28.43
2022-12-03T01:30:51.383Z,27.67
2022-12-03T01:35:35.389Z,24.93
2022-12-03T01:40:22.985Z,26.10
2022-12-03T01:45:07.575Z,28.37
2022-12-03T01:49:55.468Z,27.53
2022-12-03T01:54:42.500Z,26.27
2022-12-03T01:59:34.203Z,27.03
2022-12-03T02:04:18.600Z,25.67
2022-12-03T02:09:03.674Z,27.67
2022-12-03T02:13:49.340Z,19.90
2022-12-03T02:18:32.838Z,21.53
2022-12-03T02:23:27.750Z,28.07
2022-12-03T02:28:12.804Z,24.67
2022-12-03T02:32:57.041Z,23.03
2022-12-03T02:37:40.646Z,25.27
2022-12-03T02:42:36.660Z,24.47
2022-12-03T02:47:22.592Z,26.47
2022-12-03T02:52:06.570Z,25.83
2022-12-03T02:56:50.360Z,21.87
2022-12-03T03:01:35.163Z,23.37
2022-12-03T03:06:21.991Z,19.63
2022-12-03T03:11:05.840Z,20.87
2022-12-03T03:15:49.689Z,22.00
2022-12-03T03:20:33.253Z,20.10
2022-12-03T03:25:22.655Z,19.47
2022-12-03T03:30:07.297Z,21.60
2022-12-03T03:34:51.304Z,21.20
2022-12-03T03:39:35.450Z,21.23
2022-12-03T03:44:20.336Z,23.17
2022-12-03T03:49:05.188Z,26.27
2022-12-03T03:53:51.097Z,26.87
2022-12-03T03:58:34.639Z,27.40
2022-12-03T04:03:19.463Z,31.83
2022-12-03T04:08:02.932Z,26.23
2022-12-03T04:12:58.592Z,31.03
2022-12-03T04:17:41.985Z,34.43
2022-12-03T04:22:42.109Z,29.60
2022-12-03T04:27:42.578Z,33.00
2022-12-03T04:32:43.412Z,32.83
2022-12-03T04:37:28.490Z,35.63
2022-12-03T04:42:12.096Z,33.17
2022-12-03T04:46:55.516Z,33.37
2022-12-03T04:51:39.227Z,44.20
2022-12-03T04:56:24.039Z,39.40
2022-12-03T05:01:07.472Z,38.50
2022-12-03T05:05:50.998Z,33.17
2022-12-03T05:10:34.402Z,40.20
2022-12-03T05:15:19.928Z,36.17
2022-12-03T05:20:20.878Z,34.03
2022-12-03T05:25:04.493Z,33.70
2022-12-03T05:29:49.321Z,36.77
2022-12-03T05:34:34.160Z,35.10
2022-12-03T05:39:17.638Z,42.33
2022-12-03T05:44:01.037Z,37.60
2022-12-03T05:48:44.622Z,35.63
2022-12-03T05:53:29.567Z,29.67
2022-12-03T05:58:13.457Z,39.50
2022-12-03T06:02:57.772Z,35.37
2022-12-03T06:07:41.525Z,37.83
2022-12-03T06:12:26.533Z,41.50
2022-12-03T06:17:09.945Z,40.70
2022-12-03T06:21:53.632Z,39.60
2022-12-03T06:26:37.383Z,36.03
2022-12-03T06:31:22.307Z,35.63
2022-12-03T06:36:06.465Z,36.67
2022-12-03T06:40:50.111Z,38.93
2022-12-03T06:45:33.553Z,30.27
2022-12-03T06:50:18.729Z,27.73
2022-12-03T06:55:03.040Z,29.30
2022-12-03T06:59:47.299Z,28.70
2022-12-03T07:04:30.930Z,26.37
2022-12-03T07:09:17.974Z,30.07
2022-12-03T07:14:05.723Z,34.83
2022-12-03T07:18:50.265Z,34.10
2022-12-03T07:23:34.556Z,31.33
2022-12-03T07:28:19.404Z,29.60
2022-12-03T07:33:02.914Z,30.90
2022-12-03T07:37:46.458Z,29.37
2022-12-03T07:42:29.922Z,25.73
2022-12-03T07:47:14.801Z,29.10
2022-12-03T07:51:58.599Z,28.67
2022-12-03T07:56:42.820Z,31.33
2022-12-03T08:01:26.437Z,32.80
2022-12-03T08:06:11.600Z,28.47
2022-12-03T08:10:55.092Z,31.07
2022-12-03T08:15:39.627Z,25.47
2022-12-03T08:20:25.009Z,29.93
2022-12-03T08:25:16.503Z,35.43
2022-12-03T08:30:04.939Z,33.43
2022-12-03T08:34:48.396Z,33.00
2022-12-03T08:39:34.487Z,34.73
2022-12-03T08:44:29.168Z,29.33
2022-12-03T08:49:13.056Z,29.77
2022-12-03T08:54:05.505Z,30.90
2022-12-03T08:58:51.155Z,28.03
2022-12-03T09:03:36.615Z,25.53
2022-12-03T09:08:20.243Z,27.53
2022-12-03T09:13:03.875Z,28.63
2022-12-03T09:17:47.328Z,27.37
2022-12-03T09:22:34.863Z,29.60
2022-12-03T09:27:19.404Z,25.87
2022-12-03T09:32:02.879Z,28.23
2022-12-03T09:36:46.391Z,25.13
2022-12-03T09:41:31.238Z,25.03
2022-12-03T09:46:15.116Z,25.53
2022-12-03T09:50:58.960Z,28.57
2022-12-03T09:55:43.829Z,17.60
2022-12-03T10:00:31.568Z,21.13
2022-12-03T10:05:15.839Z,23.23
2022-12-03T10:09:59.259Z,22.77
2022-12-03T10:14:43.945Z,19.13
2022-12-03T10:19:33.046Z,24.73
2022-12-03T10:24:23.120Z,20.60
2022-12-03T10:29:13.900Z,25.10
2022-12-03T10:34:00.031Z,23.67
2022-12-03T10:38:45.192Z,24.43
2022-12-03T10:43:28.619Z,26.23
2022-12-03T10:48:17.798Z,22.90
2022-12-03T10:53:01.268Z,29.27
2022-12-03T10:57:47.182Z,28.60
2022-12-03T11:02:30.669Z,27.23
2022-12-03T11:07:19.660Z,23.93
2022-12-03T11:12:06.315Z,25.70
2022-12-03T11:17:12.321Z,29.57
2022-12-03T11:22:28.057Z,19.53
2022-12-03T11:27:22.595Z,18.80
2022-12-03T11:32:06.132Z,16.53
2022-12-03T11:37:24.778Z,16.50
2022-12-03T11:42:30.756Z,19.90
2022-12-03T11:47:17.302Z,18.47
2022-12-03T11:52:04.158Z,17.07
2022-12-03T11:56:50.266Z,16.27
2022-12-03T12:01:38.979Z,17.63
2022-12-03T12:06:23.431Z,14.80
2022-12-03T12:11:18.358Z,16.63
2022-12-03T12:16:05.342Z,17.27
2022-12-03T12:20:48.947Z,16.10
2022-12-03T12:25:42.489Z,21.63
2022-12-03T12:30:26.186Z,14.63
2022-12-03T12:35:19.569Z,16.10
2022-12-03T12:40:07.680Z,17.23
2022-12-03T12:44:51.969Z,16.90
2022-12-03T12:49:35.619Z,15.43
2022-12-03T12:54:20.926Z,15.50
2022-12-03T12:59:14.312Z,16.53
2022-12-03T13:03:59.711Z,18.60
2022-12-03T13:08:47.075Z,16.33
2022-12-03T13:13:43.679Z,18.67
2022-12-03T13:18:34.523Z,17.10
2022-12-03T13:23:35.338Z,16.57
2022-12-03T13:28:19.285Z,20.10
2022-12-03T13:33:13.717Z,18.47
2022-12-03T13:37:59.014Z,16.93
2022-12-03T13:42:42.760Z,16.53
2022-12-03T13:47:26.251Z,18.00
2022-12-03T13:52:17.397Z,19.27
2022-12-03T13:57:02.804Z,20.07
2022-12-03T14:01:46.750Z,19.40
2022-12-03T14:06:30.846Z,17.00
2022-12-03T14:11:30.163Z,21.63
2022-12-03T14:16:14.198Z,27.97
2022-12-03T14:20:57.758Z,30.43
2022-12-03T14:25:41.669Z,24.53
2022-12-03T14:30:26.611Z,34.23
2022-12-03T14:35:10.782Z,30.73
2022-12-03T14:39:54.706Z,33.67
2022-12-03T14:44:38.614Z,34.70
2022-12-03T14:49:23.825Z,33.53
2022-12-03T14:54:07.426Z,40.10
2022-12-03T14:58:50.929Z,36.30
2022-12-03T15:03:34.521Z,37.07
2022-12-03T15:08:19.665Z,33.93
2022-12-03T15:13:03.273Z,33.80
2022-12-03T15:17:47.537Z,38.67
2022-12-03T15:22:31.179Z,41.23
2022-12-03T15:27:16.068Z,45.63
2022-12-03T15:32:01.510Z,37.47
2022-12-03T15:36:45.885Z,28.53
2022-12-03T15:41:30.683Z,34.80
2022-12-03T15:46:16.426Z,33.90
2022-12-03T15:51:00.999Z,32.77
2022-12-03T15:55:44.565Z,29.77
2022-12-03T16:00:28.711Z,31.70
2022-12-03T16:05:15.230Z,32.57
2022-12-03T16:09:59.252Z,32.10
2022-12-03T16:14:43.589Z,33.50
2022-12-03T16:19:27.439Z,32.53
2022-12-03T16:24:12.744Z,36.30
2022-12-03T16:28:56.928Z,41.63
2022-12-03T16:33:40.827Z,44.50
2022-12-03T16:38:27.120Z,52.17
2022-12-03T16:43:13.013Z,46.70
2022-12-03T16:47:57.368Z,42.20
2022-12-03T16:52:40.929Z,45.23
2022-12-03T16:57:30.265Z,42.43
2022-12-03T17:02:19.099Z,44.37
2022-12-03T17:07:03.709Z,42.93
2022-12-03T17:11:48.377Z,41.57
2022-12-03T17:16:32.429Z,37.40
2022-12-03T17:21:18.255Z,43.23
2022-12-03T17:26:02.149Z,45.30
2022-12-03T17:30:46.533Z,45.87
2022-12-03T17:35:30.378Z,45.13
2022-12-03T17:40:17.397Z,47.30
2022-12-03T17:45:01.585Z,45.17
2022-12-03T17:49:46.129Z,40.23
2022-12-03T17:54:48.974Z,42.43
2022-12-03T17:59:34.933Z,48.00
2022-12-03T18:04:19.158Z,45.93
2022-12-03T18:09:03.089Z,45.53
2022-12-03T18:13:47.306Z,46.27
2022-12-03T18:18:32.890Z,45.93
2022-12-03T18:23:17.227Z,47.80
2022-12-03T18:28:03.506Z,41.17
2022-12-03T18:32:48.097Z,39.47
2022-12-03T18:37:35.005Z,48.13
2022-12-03T18:42:22.132Z,41.83
2022-12-03T18:47:14.398Z,43.67
2022-12-03T18:51:59.830Z,39.33
2022-12-03T18:56:46.389Z,40.97
2022-12-03T19:01:34.150Z,35.57
2022-12-03T19:06:25.816Z,36.17
2022-12-03T19:11:10.472Z,35.50
2022-12-03T19:15:56.956Z,32.90
2022-12-03T19:20:46.775Z,41.50
2022-12-03T19:25:31.387Z,35.77
2022-12-03T19:30:29.380Z,37.23
2022-12-03T19:35:17.978Z,34.63
2022-12-03T19:40:04.775Z,37.50
2022-12-03T19:44:51.077Z,51.93
2022-12-03T19:49:35.999Z,41.70
2022-12-03T19:54:25.258Z,37.90
2022-12-03T19:59:10.096Z,40.90
2022-12-03T20:03:58.739Z,42.27
2022-12-03T20:08:45.600Z,49.43
2022-12-03T20:13:36.288Z,48.10
2022-12-03T20:18:22.624Z,42.13
2022-12-03T20:23:09.356Z,44.30
2022-12-03T20:27:54.652Z,39.27
2022-12-03T20:32:45.252Z,44.20
2022-12-03T20:37:31.425Z,44.57
2022-12-03T20:42:15.701Z,49.10
2022-12-03T20:47:01.911Z,38.30
2022-12-03T20:51:51.135Z,41.07
2022-12-03T20:56:37.261Z,35.70
2022-12-03T21:01:25.612Z,52.13
2022-12-03T21:06:10.841Z,39.57
2022-12-03T21:10:57.044Z,36.47
2022-12-03T21:15:43.150Z,42.37
2022-12-03T21:20:28.194Z,42.03
2022-12-03T21:25:14.301Z,50.50
2022-12-03T21:30:33.091Z,42.87
2022-12-03T21:35:19.756Z,53.90
2022-12-03T21:40:05.022Z,41.17
2022-12-03T21:44:50.006Z,47.43
2022-12-03T21:49:37.084Z,45.50
2022-12-03T21:54:21.105Z,42.30
2022-12-03T21:59:05.249Z,44.13
2022-12-03T22:03:50.391Z,41.47
2022-12-03T22:08:35.622Z,41.13
2022-12-03T22:13:19.387Z,49.27
2022-12-03T22:18:05.540Z,51.37
2022-12-03T22:22:50.106Z,48.07
2022-12-03T22:27:35.032Z,44.70
2022-12-03T22:32:18.602Z,43.23
2022-12-03T22:37:02.863Z,43.50
2022-12-03T22:41:46.505Z,45.57
2022-12-03T22:46:32.450Z,53.50
2022-12-03T22:51:18.961Z,49.07
2022-12-03T22:56:03.064Z,51.17
2022-12-03T23:05:39.244Z,48.93
2022-12-03T23:10:23.596Z,45.27
2022-12-03T23:15:08.710Z,51.43
2022-12-03T23:19:52.228Z,48.63
2022-12-03T23:24:38.012Z,50.30
2022-12-03T23:29:22.535Z,48.17
2022-12-03T23:34:07.234Z,44.30
2022-12-03T23:38:50.798Z,41.53
2022-12-03T23:43:36.350Z,39.40
2022-12-03T23:48:19.840Z,40.20
2022-12-03T23:53:03.600Z,38.97
2022-12-03T23:57:47.065Z,47.57
